EGCCEGAC

Guest
Details From EGCC - Manchester
To EGAC - Belfast City
Flight Number -
Tags Decoded
Created
Modified
Stats Distance 151 nm / 280 km
Max Altitude 0 ft / 0 m
Waypoints 4
Social Downloads 11
Likes 0
Share VATSIM

Download

Looking for another format? Having issues loading an existing format? Contact us
Advertisement - Login to hide

Notes

Decoded

Route

EGCC WAL IOM EGAC

ID Type Via Altitude Latitude Longitude Leg Dist Tot Dist Heading (true) Name
O EGCC APT - 0 ft / 0 m 53.33197˚ -2.31066˚ - 0 nm - -
WAL VOR - 0 ft / 0 m 53.39194˚ -3.13444˚ 29 nm 29 nm 277° / 277° WALLASEY VOR-DME
IOM VOR - 0 ft / 0 m 54.06687˚ -4.76347˚ 70 nm 100 nm 306° / 304° ISLE OF MAN VOR-DME
O EGAC APT - 0 ft / 0 m 54.61136˚ -5.88072˚ 50 nm 151 nm 310° / 309° -

Altitude Profile

Advertisement - Login to hide

EGCC

Details ICAO EGCC (MAN)
Name Manchester Intl
Region United Kingdom
Timezone Europe/London (UTC+0.0)
Stats Elevation 257 ft / 78 m (AMSL)
Location 53.347141° -2.283954°
Runways 2
Magnetic Variation 1.463° W

METAR

EGCC 112050Z AUTO VRB01KT 9999 NCD M03/M05 Q0997 NOSIG

Decode

TAF

TAF EGCC 111659Z 1118/1224 VRB04KT 9999 FEW045 TEMPO 1118/1119 8000 BECMG 1119/1122 6000 BECMG 1122/1124 4000 BR PROB30 1200/1212 0300 FZFG VV/// BECMG 1213/1216 9999 NSW TEMPO 1220/1224 6000 RA BKN008

Decode

Departure Runways

ID Width Length Bearing (true) Bearing (mag) Surface Threshold Offset Overrun Length
05L 151 ft / 46 m 9,981 ft / 3,042 m 50.99° 52.45° Asphalt 1,401 ft / 427 m 0 ft / 0 m
05R 151 ft / 46 m 9,952 ft / 3,033 m 50.97° 52.43° Asphalt 0 ft / 0 m 26 ft / 8 m
23L 151 ft / 46 m 9,952 ft / 3,033 m 231.00° 232.46° Asphalt 561 ft / 171 m 0 ft / 0 m
23R 151 ft / 46 m 9,981 ft / 3,042 m 231.02° 232.48° Asphalt 597 ft / 182 m 0 ft / 0 m

EGAC

Details ICAO EGAC (BHD)
Name Belfast City
Region United Kingdom
Timezone Europe/London (UTC+0.0)
Stats Elevation 15 ft / 5 m (AMSL)
Location 54.618108° -5.872575°
Runways 1
Magnetic Variation 3.092° W

METAR

EGAC 112050Z 32009KT 9999 FEW033 04/01 Q1000

Decode

TAF

Not found

Destination Runways

ID Width Length Bearing (true) Bearing (mag) Surface Threshold Offset Overrun Length
04 148 ft / 45 m 6,009 ft / 1,832 m 34.93° 38.02° Asphalt 302 ft / 92 m 0 ft / 0 m
22 148 ft / 45 m 6,009 ft / 1,832 m 214.94° 218.03° Asphalt 0 ft / 0 m 0 ft / 0 m

Approach Navaids

Runway Type Ident Frequency Range Bearing (true) Bearing (mag) Slope Elevation
04 Localiser HBD 108.10 MHz 18 nm / 33 km 34.92° 38.01° - 15 ft / 5 m (AMSL)
04 DME HBD 108.10 MHz 18 nm / 33 km - - - 30 ft / 9 m (AMSL)
22 Localiser IBFH 108.10 MHz 18 nm / 33 km 214.69° 217.79° - 15 ft / 5 m (AMSL)
22 Glidescope IBFH 108.10 MHz 10 nm / 19 km 214.94° 218.03° 3.00° 50 ft / 15 m (AMSL)
22 DME IBFH 108.10 MHz 18 nm / 33 km - - - 30 ft / 9 m (AMSL)

Popular Alternatives